Terminal Aerodrome Forecast
Issued by NWS Charleston, WV

Current Version | Previous Version | Graphics & Text | Print | Product List | Glossary Off
Versions: 1 2 3 4 5 6 7 8 9 10 11 12 13 14 15 16 17 18 19 20 21 22 23 24 25 26 27 28 29

163
FTUS41 KRLX 241120
TAFEKN
TAF
KEKN 241120Z 2412/2512 00000KT P6SM BKN020
     FM241500 25004KT P6SM SCT050
     FM241800 28008KT P6SM BKN050
     FM250000 30005KT P6SM SCT250
     FM250600 36003KT P6SM VCFG SCT010=

USA.gov is the U.S. government's official web portal to all federal, state and local government web resources and services.